Glenville, Minnesota
Current Conditions -  °F | °C
As of 3:13 PM on Sunday 23 Nov 2014 (Local Time) from KAEL Reporting Station
Haze Haze  
Wind Chill: 37°   Ceiling: 800
Heat Index: 43°   Visibility: 4mi
Dew Point: 43°   Wind: 9mph
Humidity: 100%   Direction: 310°NW
Pressure: 29.37"   Gusts: 18mph
Location:  43.57°N, 93.28°W
Report Text: KAEL 232113Z AUTO 31008G16KT 280V340 4SM BR BKN008 OVC013 06/06 A2937 RMK AO2
Loading
Personal Weather Stations






























Interactive Weather Map New forecast layout! Learn more

10-Day Weather Forecast

Advertisements
Track Severe Weather on mobile